Time;durP1;ratioP1;P1;durP2;ratioP2;P2;SDS_P1;SDS_P2;PMS_P1;PMS_P2;Temp;Humidity;BMP_temperature;BMP_pressure;BME280_temperature;BME280_humidity;BME280_pressure;Samples;Min_cycle;Max_cycle;Signal;HPM_P1;HPM_P2
2021/08/11 00:02:18;;;;;;;3.97;2.10;;;20.10;88.90;;;;;;5014500;28;20049;-84
2021/08/11 00:04:44;;;;;;;3.35;2.38;;;20.10;89.00;;;;;;5013361;28;20026;-83
2021/08/11 00:07:10;;;;;;;5.18;2.30;;;20.10;89.00;;;;;;5013304;28;20459;-83
2021/08/11 00:09:35;;;;;;;4.55;2.25;;;20.00;89.60;;;;;;5013207;28;20098;-84
2021/08/11 00:12:01;;;;;;;6.47;2.75;;;20.00;90.00;;;;;;5012769;28;20018;-84
2021/08/11 00:14:27;;;;;;;3.90;2.05;;;20.00;90.10;;;;;;5013085;28;20117;-84
2021/08/11 00:16:53;;;;;;;3.88;2.17;;;19.90;90.20;;;;;;5013785;28;20538;-84
2021/08/11 00:19:18;;;;;;;4.13;2.38;;;19.90;90.30;;;;;;5013444;28;20480;-82
2021/08/11 00:21:44;;;;;;;4.25;2.33;;;19.80;90.40;;;;;;5014230;28;20018;-82
2021/08/11 00:24:10;;;;;;;5.68;2.28;;;19.70;90.40;;;;;;5013674;28;20058;-81
2021/08/11 00:26:36;;;;;;;5.68;2.50;;;19.60;90.60;;;;;;5013331;28;20024;-82
2021/08/11 00:29:02;;;;;;;4.93;2.50;;;19.60;90.60;;;;;;5015987;28;20030;-82
2021/08/11 00:31:27;;;;;;;3.72;2.33;;;19.60;90.60;;;;;;5017203;28;20029;-82
2021/08/11 00:33:53;;;;;;;3.75;2.30;;;19.60;90.60;;;;;;5017563;28;20028;-82
2021/08/11 00:36:19;;;;;;;5.28;2.70;;;19.50;90.70;;;;;;5017058;28;20116;-81
2021/08/11 00:38:44;;;;;;;3.22;2.30;;;19.50;90.80;;;;;;5017105;28;20522;-81
2021/08/11 00:41:10;;;;;;;4.57;2.53;;;19.60;90.80;;;;;;5016684;28;20026;-81
2021/08/11 00:43:36;;;;;;;4.72;2.53;;;19.50;90.80;;;;;;5016921;28;20452;-81
2021/08/11 00:46:01;;;;;;;4.03;2.65;;;19.40;90.90;;;;;;5016363;28;20047;-81
2021/08/11 00:48:27;;;;;;;5.90;2.50;;;19.50;91.10;;;;;;5017024;28;20378;-81
2021/08/11 00:50:57;;;;;;;4.57;2.20;;;19.50;91.10;;;;;;5017447;28;20459;-81
2021/08/11 00:53:27;;;;;;;4.00;2.65;;;19.50;91.00;;;;;;5016779;28;20148;-81
2021/08/11 00:55:56;;;;;;;6.43;2.45;;;19.60;91.00;;;;;;5016364;28;20076;-81
2021/08/11 00:58:23;;;;;;;2.88;2.08;;;19.60;91.00;;;;;;5017745;28;20084;-81
2021/08/11 01:00:50;;;;;;;3.83;2.45;;;19.60;91.10;;;;;;5017419;28;20026;-82
2021/08/11 01:03:21;;;;;;;2.83;2.10;;;19.60;91.00;;;;;;5017821;28;20049;-81
2021/08/11 01:05:47;;;;;;;5.25;2.33;;;19.60;91.20;;;;;;5017589;28;20018;-80
2021/08/11 01:08:13;;;;;;;3.92;2.42;;;19.60;91.10;;;;;;5016105;28;20117;-81
2021/08/11 01:10:40;;;;;;;4.57;2.28;;;19.60;91.10;;;;;;5016437;28;20045;-81
2021/08/11 01:13:09;;;;;;;5.03;2.50;;;19.60;91.00;;;;;;5016044;28;20018;-81
2021/08/11 01:15:34;;;;;;;3.22;2.33;;;19.50;90.90;;;;;;5016252;28;20033;-81
2021/08/11 01:18:00;;;;;;;6.25;2.42;;;19.40;91.00;;;;;;5017013;28;20076;-81
2021/08/11 01:20:27;;;;;;;3.40;2.20;;;19.40;91.00;;;;;;5015902;28;20025;-81
2021/08/11 01:23:05;;;;;;;5.20;2.20;;;19.40;91.10;;;;;;5015813;28;20356;-81
2021/08/11 01:25:36;;;;;;;4.03;2.42;;;19.20;91.20;;;;;;5017027;28;20025;-80
2021/08/11 01:28:27;;;;;;;4.65;2.20;;;19.20;91.30;;;;;;5015243;28;20025;-81
2021/08/11 01:31:13;;;;;;;4.68;2.08;;;19.20;91.30;;;;;;5007593;28;20034;-81
2021/08/11 01:33:48;;;;;;;5.75;3.00;;;19.20;91.20;;;;;;5015747;28;20023;-80
2021/08/11 01:36:54;;;;;;;5.28;2.45;;;19.20;91.30;;;;;;5015361;28;20029;-80
2021/08/11 01:39:22;;;;;;;7.10;2.50;;;19.10;91.20;;;;;;5014801;28;20042;-80
2021/08/11 01:41:58;;;;;;;6.65;2.20;;;19.00;91.30;;;;;;5015756;28;20022;-82
2021/08/11 01:44:28;;;;;;;7.07;2.40;;;19.00;91.30;;;;;;5015764;28;20022;-82
2021/08/11 01:46:55;;;;;;;3.77;2.40;;;19.00;91.30;;;;;;5015356;28;20033;-82
2021/08/11 01:49:23;;;;;;;3.75;2.13;;;19.00;91.40;;;;;;5015472;28;20311;-82
2021/08/11 01:51:50;;;;;;;5.80;2.55;;;18.90;91.40;;;;;;5015583;28;20105;-80
2021/08/11 01:54:15;;;;;;;5.18;3.17;;;18.90;91.40;;;;;;5015270;28;20022;-82
2021/08/11 01:56:43;;;;;;;5.95;2.10;;;18.90;91.50;;;;;;5016832;28;20083;-82
2021/08/11 01:59:09;;;;;;;7.57;2.50;;;18.90;91.40;;;;;;5014800;28;20053;-81
2021/08/11 02:01:39;;;;;;;3.53;2.00;;;18.90;91.40;;;;;;5015780;28;20033;-83
2021/08/11 02:04:07;;;;;;;4.32;2.10;;;18.90;91.50;;;;;;5015102;28;20102;-82
2021/08/11 02:06:35;;;;;;;3.40;2.10;;;18.90;91.60;;;;;;5015491;28;20026;-83
2021/08/11 02:09:00;;;;;;;3.60;2.10;;;18.90;91.60;;;;;;5014899;28;20477;-82
2021/08/11 02:11:27;;;;;;;4.53;2.03;;;19.00;91.40;;;;;;5015378;28;20057;-83
2021/08/11 02:13:52;;;;;;;3.65;2.40;;;18.90;91.50;;;;;;5015771;28;20307;-93
2021/08/11 02:16:19;;;;;;;3.28;2.22;;;18.80;91.70;;;;;;5015673;28;20018;-80
2021/08/11 02:18:45;;;;;;;3.90;2.35;;;18.80;91.80;;;;;;5015150;28;20037;-80
2021/08/11 02:21:10;;;;;;;3.42;1.88;;;18.80;91.80;;;;;;5014640;28;20022;-81
2021/08/11 02:23:36;;;;;;;4.43;2.10;;;18.80;91.90;;;;;;5015069;28;20100;-80
2021/08/11 02:26:27;;;;;;;5.85;2.10;;;18.80;92.20;;;;;;5014483;28;20021;-81
2021/08/11 02:28:59;;;;;;;4.85;2.30;;;18.80;91.90;;;;;;5015905;28;20026;-81
2021/08/11 02:32:32;;;;;;;3.38;2.10;;;18.80;91.90;;;;;;5015158;28;20028;-81
2021/08/11 02:35:31;;;;;;;3.63;2.47;;;18.80;92.10;;;;;;4975279;28;20159;-82
2021/08/11 02:38:20;;;;;;;4.97;2.40;;;18.70;92.20;;;;;;4993366;28;20053;-82
2021/08/11 02:40:54;;;;;;;3.40;2.22;;;18.80;92.10;;;;;;5015745;28;20013;-82
2021/08/11 02:43:26;;;;;;;4.95;2.10;;;18.80;91.90;;;;;;5014874;28;20032;-82
2021/08/11 02:45:57;;;;;;;3.97;2.30;;;18.80;92.00;;;;;;5014559;28;20034;-82
2021/08/11 02:48:24;;;;;;;5.13;2.20;;;18.70;91.80;;;;;;5014790;28;20038;-80
2021/08/11 02:50:51;;;;;;;7.13;2.67;;;18.70;91.80;;;;;;5013603;28;20087;-81
2021/08/11 02:53:21;;;;;;;9.85;2.15;;;18.70;91.90;;;;;;5015163;28;20022;-81
2021/08/11 02:55:47;;;;;;;3.38;2.08;;;18.70;91.90;;;;;;5015238;28;20482;-82
2021/08/11 02:58:15;;;;;;;2.95;2.25;;;18.70;92.00;;;;;;5014874;28;20030;-82
2021/08/11 03:00:41;;;;;;;5.50;2.22;;;18.60;92.00;;;;;;5014407;28;20013;-81
2021/08/11 03:03:08;;;;;;;4.13;2.42;;;18.60;92.00;;;;;;5014689;28;20032;-82
2021/08/11 03:05:34;;;;;;;5.32;2.35;;;18.60;92.00;;;;;;5014395;28;20022;-81
2021/08/11 03:08:01;;;;;;;4.80;2.10;;;18.50;92.20;;;;;;5013555;28;20033;-82
2021/08/11 03:10:27;;;;;;;5.10;2.50;;;18.40;92.20;;;;;;5014239;28;20088;-81
2021/08/11 03:12:53;;;;;;;4.20;2.28;;;18.50;92.50;;;;;;5015141;28;20026;-81
2021/08/11 03:15:20;;;;;;;4.15;2.10;;;18.50;92.20;;;;;;5014443;28;20106;-82
2021/08/11 03:17:47;;;;;;;4.15;2.28;;;18.40;92.20;;;;;;5014084;28;20029;-82
2021/08/11 03:20:13;;;;;;;5.00;2.55;;;18.40;92.10;;;;;;5014741;28;20073;-82
2021/08/11 03:22:38;;;;;;;2.95;2.08;;;18.40;92.20;;;;;;5013908;28;20022;-82
2021/08/11 03:25:05;;;;;;;3.20;1.92;;;18.30;92.20;;;;;;5013304;28;20022;-82
2021/08/11 03:27:31;;;;;;;5.57;2.45;;;18.30;92.30;;;;;;5013674;28;20021;-82
2021/08/11 03:29:57;;;;;;;3.35;2.50;;;18.20;92.40;;;;;;5014518;28;20045;-86
2021/08/11 03:32:22;;;;;;;3.10;2.30;;;18.20;92.40;;;;;;5013765;28;20018;-82
2021/08/11 03:34:48;;;;;;;4.93;2.08;;;18.20;92.50;;;;;;5013500;28;20028;-82
2021/08/11 03:37:16;;;;;;;3.85;2.15;;;18.10;92.40;;;;;;5012819;28;20482;-82
2021/08/11 03:39:42;;;;;;;2.63;1.70;;;18.10;92.50;;;;;;5013853;28;20033;-82
2021/08/11 03:42:08;;;;;;;2.90;1.85;;;18.10;92.40;;;;;;5013311;28;20028;-82
2021/08/11 03:44:34;;;;;;;3.65;2.15;;;18.10;92.40;;;;;;5014746;28;20037;-82
2021/08/11 03:46:59;;;;;;;3.90;2.58;;;18.00;92.40;;;;;;5014152;28;20052;-82
2021/08/11 03:49:25;;;;;;;3.92;2.00;;;18.00;92.50;;;;;;5014680;28;20032;-81
2021/08/11 03:51:51;;;;;;;3.65;2.17;;;18.00;92.60;;;;;;5013931;28;20439;-82
2021/08/11 03:54:16;;;;;;;4.47;2.50;;;17.90;92.70;;;;;;5013154;28;20451;-81
2021/08/11 03:56:42;;;;;;;4.57;2.28;;;17.80;92.70;;;;;;5013684;28;20447;-82
2021/08/11 03:59:08;;;;;;;3.28;1.90;;;17.80;92.70;;;;;;5014144;28;20018;-82
2021/08/11 04:01:33;;;;;;;3.50;2.13;;;17.90;92.70;;;;;;5013288;28;20022;-82
2021/08/11 04:03:59;;;;;;;3.83;2.30;;;17.90;92.60;;;;;;5012653;28;20466;-91
2021/08/11 04:06:24;;;;;;;3.85;2.20;;;18.00;92.50;;;;;;5013464;28;20033;-82
2021/08/11 04:08:50;;;;;;;4.65;1.92;;;18.00;92.30;;;;;;5013271;28;20034;-81
2021/08/11 04:11:16;;;;;;;4.00;2.30;;;18.00;92.40;;;;;;5012744;28;20029;-82
2021/08/11 04:13:41;;;;;;;4.25;2.25;;;18.00;92.40;;;;;;5013035;28;20067;-81
2021/08/11 04:16:07;;;;;;;2.22;1.88;;;18.00;92.30;;;;;;5012323;28;20467;-82
2021/08/11 04:18:33;;;;;;;3.03;2.47;;;18.00;92.30;;;;;;5013365;28;20493;-82
2021/08/11 04:20:58;;;;;;;5.45;2.42;;;17.90;92.50;;;;;;5013291;28;20028;-82
2021/08/11 04:23:26;;;;;;;3.17;2.20;;;17.80;92.80;;;;;;5012817;28;20431;-82
2021/08/11 04:25:52;;;;;;;3.35;1.90;;;17.70;92.90;;;;;;5013094;28;20463;-81
2021/08/11 04:28:18;;;;;;;3.00;2.00;;;17.80;92.80;;;;;;5012536;28;20037;-82
2021/08/11 04:30:43;;;;;;;3.03;1.88;;;17.80;92.70;;;;;;5013001;28;20022;-82
2021/08/11 04:33:09;;;;;;;3.67;2.10;;;17.80;92.60;;;;;;5012736;28;20025;-82
2021/08/11 04:35:39;;;;;;;2.80;2.10;;;17.80;92.70;;;;;;5013159;28;20025;-82
2021/08/11 04:38:05;;;;;;;4.43;2.45;;;17.80;92.80;;;;;;5012458;28;20042;-82
2021/08/11 04:40:30;;;;;;;3.17;2.05;;;17.80;92.90;;;;;;5013171;28;20517;-81
2021/08/11 04:42:56;;;;;;;3.65;2.20;;;17.70;92.90;;;;;;5013266;28;20458;-82
2021/08/11 04:45:21;;;;;;;3.90;2.30;;;17.70;92.90;;;;;;5012563;28;20030;-82
2021/08/11 04:47:48;;;;;;;5.40;2.22;;;17.70;93.10;;;;;;5013103;28;20375;-82
2021/08/11 04:50:14;;;;;;;2.75;1.90;;;17.70;93.00;;;;;;5012746;28;20109;-82
2021/08/11 04:52:40;;;;;;;2.88;2.00;;;17.80;92.80;;;;;;5013197;28;20463;-81
2021/08/11 04:55:07;;;;;;;3.83;2.30;;;17.80;92.80;;;;;;5013435;28;20040;-82
2021/08/11 04:57:33;;;;;;;5.07;2.33;;;17.80;92.90;;;;;;5012800;28;20018;-82
2021/08/11 04:59:58;;;;;;;4.38;2.28;;;17.90;93.00;;;;;;5013110;28;20053;-82
2021/08/11 05:02:24;;;;;;;4.85;2.50;;;18.00;92.90;;;;;;5012463;28;20520;-81
2021/08/11 05:04:50;;;;;;;4.03;2.38;;;18.00;92.70;;;;;;5013893;28;20097;-82
2021/08/11 05:07:16;;;;;;;4.38;2.25;;;18.10;92.60;;;;;;5012286;28;20022;-82
2021/08/11 05:09:41;;;;;;;4.28;2.35;;;18.00;92.60;;;;;;5012623;28;20034;-81
2021/08/11 05:12:07;;;;;;;4.68;2.65;;;18.10;92.60;;;;;;5012297;28;20025;-82
2021/08/11 05:14:34;;;;;;;4.53;2.55;;;18.10;92.60;;;;;;5013398;28;20037;-82
2021/08/11 05:16:59;;;;;;;5.90;2.40;;;18.10;92.70;;;;;;5016427;28;20033;-82
2021/08/11 05:19:25;;;;;;;5.38;2.42;;;18.10;92.90;;;;;;5015829;28;20025;-82
2021/08/11 05:21:51;;;;;;;2.83;2.22;;;18.20;93.10;;;;;;5016442;28;20022;-82
2021/08/11 05:24:18;;;;;;;3.33;2.38;;;18.20;93.00;;;;;;5016826;28;20481;-82
2021/08/11 05:26:45;;;;;;;3.22;2.47;;;18.20;93.00;;;;;;5016224;28;20029;-82
2021/08/11 05:29:18;;;;;;;3.05;2.08;;;18.30;92.90;;;;;;5015651;28;20052;-82
2021/08/11 05:31:44;;;;;;;4.22;2.58;;;18.30;93.00;;;;;;5016288;28;20018;-82
2021/08/11 05:34:10;;;;;;;4.32;2.40;;;18.20;92.80;;;;;;5015786;28;20028;-82
2021/08/11 05:36:35;;;;;;;3.33;2.05;;;18.20;92.80;;;;;;5016938;28;20022;-82
2021/08/11 05:39:01;;;;;;;3.80;2.72;;;18.30;92.80;;;;;;5016404;28;20026;-82
2021/08/11 05:41:27;;;;;;;3.20;2.28;;;18.30;92.90;;;;;;5015368;28;20029;-83
2021/08/11 05:43:52;;;;;;;5.55;2.30;;;18.30;93.00;;;;;;5016170;28;20344;-81
2021/08/11 05:46:18;;;;;;;3.78;2.35;;;18.30;93.00;;;;;;5015070;28;20026;-82
2021/08/11 05:48:44;;;;;;;5.40;2.10;;;18.30;92.90;;;;;;5015919;28;20536;-82
2021/08/11 05:51:10;;;;;;;4.63;2.78;;;18.40;92.80;;;;;;5015628;28;20029;-82
2021/08/11 05:53:35;;;;;;;7.10;2.78;;;18.40;92.60;;;;;;5016092;28;20018;-82
2021/08/11 05:56:01;;;;;;;4.68;2.40;;;18.50;92.50;;;;;;5016496;28;20021;-81
2021/08/11 05:58:27;;;;;;;4.35;2.55;;;18.60;92.30;;;;;;5015249;28;20103;-82
2021/08/11 06:00:52;;;;;;;3.83;2.40;;;18.60;92.10;;;;;;5015664;28;20435;-82
2021/08/11 06:03:18;;;;;;;4.03;2.50;;;18.80;91.90;;;;;;5014661;28;20434;-82
2021/08/11 06:05:44;;;;;;;3.08;2.40;;;18.90;91.80;;;;;;5015459;28;20018;-82
2021/08/11 06:08:10;;;;;;;4.38;2.80;;;18.90;91.60;;;;;;5014971;28;20036;-83
2021/08/11 06:10:36;;;;;;;5.43;2.45;;;19.00;91.40;;;;;;5015089;28;20081;-83
2021/08/11 06:13:02;;;;;;;5.65;2.47;;;19.10;91.30;;;;;;5015216;28;20026;-83
2021/08/11 06:15:27;;;;;;;3.22;2.17;;;19.10;91.20;;;;;;5014463;28;20128;-82
2021/08/11 06:17:53;;;;;;;3.72;2.53;;;19.10;91.20;;;;;;5015137;28;20064;-82
2021/08/11 06:20:21;;;;;;;3.08;2.45;;;19.10;91.50;;;;;;5014559;28;20026;-83
2021/08/11 06:22:47;;;;;;;8.02;2.42;;;19.10;91.50;;;;;;5015246;28;20037;-83
2021/08/11 06:25:14;;;;;;;4.00;2.03;;;19.10;91.40;;;;;;5014517;28;20029;-82
2021/08/11 06:27:39;;;;;;;4.82;2.35;;;19.20;91.50;;;;;;5014784;28;20378;-82
2021/08/11 06:30:06;;;;;;;4.35;2.35;;;19.10;91.70;;;;;;5014601;28;20030;-82
2021/08/11 06:32:32;;;;;;;5.10;1.88;;;19.20;91.70;;;;;;5015461;28;20025;-82
2021/08/11 06:34:58;;;;;;;5.05;2.30;;;19.20;91.80;;;;;;5014492;28;20038;-81
2021/08/11 06:37:23;;;;;;;3.20;2.17;;;19.20;91.80;;;;;;5014094;28;20127;-82
2021/08/11 06:39:49;;;;;;;4.45;2.40;;;19.20;91.70;;;;;;5014784;28;20455;-81
2021/08/11 06:42:15;;;;;;;4.97;2.50;;;19.30;91.90;;;;;;5014292;28;20144;-82
2021/08/11 06:44:40;;;;;;;5.60;2.40;;;19.30;91.70;;;;;;5014592;28;20444;-83
2021/08/11 06:47:06;;;;;;;7.03;3.03;;;19.30;91.50;;;;;;5014623;28;20471;-82
2021/08/11 06:49:32;;;;;;;4.15;2.38;;;19.30;91.50;;;;;;5013959;28;20041;-82
2021/08/11 06:51:58;;;;;;;9.93;2.65;;;19.30;91.50;;;;;;5015623;28;20049;-82
2021/08/11 06:54:23;;;;;;;4.43;2.70;;;19.30;91.50;;;;;;5013903;28;20022;-82
2021/08/11 06:56:49;;;;;;;5.68;2.63;;;19.30;91.40;;;;;;5014310;28;20026;-81
2021/08/11 06:59:14;;;;;;;4.78;2.67;;;19.30;91.30;;;;;;5013996;28;20029;-81
2021/08/11 07:01:40;;;;;;;5.28;2.63;;;19.40;91.40;;;;;;5002197;28;20053;-81
2021/08/11 07:04:06;;;;;;;5.10;2.60;;;19.40;91.70;;;;;;5011346;28;20077;-81
2021/08/11 07:06:32;;;;;;;4.70;2.63;;;19.50;91.70;;;;;;4994964;28;20026;-82
2021/08/11 07:08:58;;;;;;;5.25;2.90;;;19.50;91.70;;;;;;5011147;28;20068;-82
2021/08/11 07:11:23;;;;;;;4.45;2.65;;;19.50;91.70;;;;;;4993796;28;20054;-82
2021/08/11 07:13:49;;;;;;;7.38;2.58;;;19.50;91.70;;;;;;4995445;28;20033;-81
2021/08/11 07:16:15;;;;;;;4.35;2.72;;;19.60;91.70;;;;;;4993579;28;20026;-82
2021/08/11 07:18:40;;;;;;;6.20;3.00;;;19.70;91.50;;;;;;4994462;28;20042;-81
2021/08/11 07:21:06;;;;;;;3.35;2.55;;;19.70;91.40;;;;;;4994682;28;20029;-81
2021/08/11 07:23:32;;;;;;;4.00;2.35;;;19.70;91.30;;;;;;4995324;28;20049;-81
2021/08/11 07:25:57;;;;;;;5.18;2.42;;;19.80;91.10;;;;;;4994186;28;20023;-82
2021/08/11 07:28:23;;;;;;;6.95;2.38;;;19.80;90.90;;;;;;4993781;28;20031;-81
2021/08/11 07:30:49;;;;;;;5.32;2.60;;;19.70;90.80;;;;;;4999846;28;20044;-81
2021/08/11 07:33:14;;;;;;;4.93;2.88;;;19.80;90.90;;;;;;5013220;28;20522;-82
2021/08/11 07:35:40;;;;;;;5.43;2.97;;;19.80;90.90;;;;;;5013462;28;20022;-81
2021/08/11 07:38:07;;;;;;;4.47;2.20;;;19.90;90.80;;;;;;5012889;28;20045;-81
2021/08/11 07:40:34;;;;;;;5.78;3.10;;;20.00;90.70;;;;;;5013136;28;20022;-84
2021/08/11 07:43:00;;;;;;;4.57;2.47;;;20.00;90.70;;;;;;5013200;28;20021;-81
2021/08/11 07:45:28;;;;;;;5.88;2.38;;;20.10;90.50;;;;;;5012676;28;20030;-82
2021/08/11 07:47:54;;;;;;;4.50;2.50;;;20.10;90.40;;;;;;5013246;28;20036;-81
2021/08/11 07:50:25;;;;;;;5.68;2.40;;;20.20;90.50;;;;;;5013796;28;20072;-84
2021/08/11 07:52:51;;;;;;;4.28;2.42;;;20.30;90.60;;;;;;5030093;28;20370;-83
2021/08/11 07:55:17;;;;;;;3.35;2.10;;;20.30;90.10;;;;;;5013070;28;20029;-83
2021/08/11 07:57:43;;;;;;;3.60;2.25;;;20.30;90.00;;;;;;5029988;28;20366;-83
2021/08/11 08:00:11;;;;;;;2.92;2.08;;;20.30;89.70;;;;;;5013528;28;20030;-81
2021/08/11 08:02:36;;;;;;;3.85;2.15;;;20.20;89.50;;;;;;5013662;28;20026;-81
2021/08/11 08:05:03;;;;;;;3.70;2.35;;;20.20;89.50;;;;;;5013092;28;20029;-81
2021/08/11 08:07:29;;;;;;;4.70;2.03;;;20.30;89.80;;;;;;5012391;28;20487;-80
2021/08/11 08:09:56;;;;;;;5.65;2.40;;;20.30;89.80;;;;;;5009291;28;20042;-81
2021/08/11 08:12:21;;;;;;;4.60;2.60;;;20.40;89.50;;;;;;5005741;28;20521;-82
2021/08/11 08:14:47;;;;;;;3.95;1.98;;;20.40;89.20;;;;;;5013251;28;20025;-84
2021/08/11 08:17:13;;;;;;;5.57;2.13;;;20.50;89.10;;;;;;5012418;28;20026;-81
2021/08/11 08:19:38;;;;;;;3.38;1.95;;;20.50;89.20;;;;;;5012139;28;20022;-80
2021/08/11 08:22:04;;;;;;;3.40;2.22;;;20.60;88.80;;;;;;5012144;28;20475;-80
2021/08/11 08:24:32;;;;;;;6.13;2.67;;;20.60;88.70;;;;;;5012738;28;20073;-81
2021/08/11 08:26:59;;;;;;;2.78;2.47;;;20.70;88.80;;;;;;5007947;28;20030;-83
2021/08/11 08:29:25;;;;;;;6.13;2.55;;;20.70;88.60;;;;;;5003604;28;20476;-83
2021/08/11 08:31:50;;;;;;;4.28;2.47;;;20.80;88.10;;;;;;5012210;28;20056;-81
2021/08/11 08:34:16;;;;;;;4.30;2.15;;;20.80;88.00;;;;;;5012712;28;20037;-88
2021/08/11 08:36:42;;;;;;;4.88;2.67;;;20.80;87.80;;;;;;5011590;28;20046;-81
2021/08/11 08:39:08;;;;;;;6.43;2.28;;;20.80;87.50;;;;;;5001412;28;20125;-82
2021/08/11 08:41:35;;;;;;;4.63;2.30;;;20.80;87.40;;;;;;5004263;28;20084;-87
2021/08/11 08:44:01;;;;;;;2.97;2.28;;;20.90;88.30;;;;;;5010340;28;20033;-82
2021/08/11 08:46:27;;;;;;;5.30;2.50;;;20.90;88.30;;;;;;5005695;28;20021;-81
2021/08/11 08:48:54;;;;;;;4.32;2.40;;;20.90;88.10;;;;;;5028663;28;20038;-83
2021/08/11 08:51:22;;;;;;;4.82;2.55;;;21.00;88.10;;;;;;5015263;28;20029;-81
2021/08/11 08:53:49;;;;;;;4.65;2.33;;;21.00;87.90;;;;;;5014410;28;20026;-87
2021/08/11 08:56:15;;;;;;;5.18;2.38;;;21.10;87.70;;;;;;5015916;28;20128;-81
2021/08/11 08:58:42;;;;;;;4.57;2.42;;;21.10;87.00;;;;;;5016589;28;20021;-81
2021/08/11 09:01:08;;;;;;;3.72;2.42;;;21.10;86.50;;;;;;5015742;28;20108;-81
2021/08/11 09:03:34;;;;;;;4.70;2.10;;;21.10;86.30;;;;;;5015613;28;20446;-81
2021/08/11 09:06:00;;;;;;;4.38;2.28;;;21.20;86.20;;;;;;5014680;28;20045;-81
2021/08/11 09:08:26;;;;;;;10.65;2.88;;;21.20;86.00;;;;;;4996478;28;20084;-81
2021/08/11 09:10:52;;;;;;;6.88;2.90;;;21.20;85.80;;;;;;4996592;28;20114;-81
2021/08/11 09:13:20;;;;;;;5.93;2.22;;;21.20;85.80;;;;;;5010321;28;20045;-91
2021/08/11 09:15:48;;;;;;;4.68;3.00;;;21.20;86.00;;;;;;5015856;28;20049;-84
2021/08/11 09:18:26;;;;;;;6.63;2.47;;;21.20;86.10;;;;;;5016000;28;20034;-81
2021/08/11 09:21:06;;;;;;;6.30;2.25;;;21.20;86.10;;;;;;5014398;28;20032;-82
2021/08/11 09:23:36;;;;;;;4.18;2.17;;;21.30;86.50;;;;;;5001596;28;20018;-82
2021/08/11 09:26:04;;;;;;;4.32;2.30;;;21.40;85.60;;;;;;5014687;28;20096;-82
2021/08/11 09:28:32;;;;;;;4.07;2.47;;;21.40;85.40;;;;;;5014878;28;20034;-83
2021/08/11 09:30:58;;;;;;;3.75;2.30;;;21.50;85.20;;;;;;5014024;28;20029;-81
2021/08/11 09:33:24;;;;;;;4.15;2.40;;;21.50;85.00;;;;;;5013962;28;20029;-81
2021/08/11 09:35:51;;;;;;;3.80;2.60;;;21.50;85.10;;;;;;5014746;28;20018;-81
2021/08/11 09:38:16;;;;;;;3.97;2.25;;;21.60;85.00;;;;;;5030740;28;20499;-80
2021/08/11 09:40:43;;;;;;;7.20;2.42;;;21.60;84.80;;;;;;5008492;28;20120;-78
2021/08/11 09:43:15;;;;;;;3.58;2.40;;;21.60;84.10;;;;;;5006271;28;20363;-79
2021/08/11 09:45:50;;;;;;;4.43;2.10;;;21.60;83.80;;;;;;5014002;28;20036;-78
2021/08/11 09:48:23;;;;;;;8.07;2.70;;;21.60;83.90;;;;;;5014401;28;20026;-78
2021/08/11 09:50:58;;;;;;;4.55;2.10;;;21.70;84.10;;;;;;5015882;28;20072;-81
2021/08/11 09:53:26;;;;;;;3.80;2.15;;;21.80;83.80;;;;;;5016012;28;20076;-80
2021/08/11 09:56:06;;;;;;;5.43;2.33;;;21.80;83.50;;;;;;5014221;28;20024;-80
2021/08/11 09:58:33;;;;;;;5.30;2.55;;;22.00;83.00;;;;;;5013740;28;20034;-79
2021/08/11 10:00:59;;;;;;;5.18;2.15;;;22.00;83.30;;;;;;5013991;28;20053;-80
2021/08/11 10:03:25;;;;;;;5.78;2.67;;;22.00;83.20;;;;;;5013157;28;20057;-80
2021/08/11 10:05:52;;;;;;;5.93;2.40;;;22.10;83.20;;;;;;5009360;28;20065;-78
2021/08/11 10:08:28;;;;;;;6.38;2.13;;;22.10;83.20;;;;;;5011595;28;20033;-79
2021/08/11 10:10:54;;;;;;;4.15;2.50;;;22.20;83.20;;;;;;5013729;28;20072;-78
2021/08/11 10:13:24;;;;;;;4.78;2.80;;;22.20;82.60;;;;;;5013108;28;20026;-81
2021/08/11 10:15:50;;;;;;;6.72;2.40;;;22.30;81.90;;;;;;5014005;28;20037;-77
2021/08/11 10:18:23;;;;;;;4.28;2.47;;;22.30;81.70;;;;;;5013799;28;20065;-79
2021/08/11 10:20:51;;;;;;;5.10;2.25;;;22.40;81.30;;;;;;5029951;28;20025;-79
2021/08/11 10:23:19;;;;;;;4.32;2.47;;;22.60;80.60;;;;;;5014821;28;20034;-79
2021/08/11 10:25:46;;;;;;;5.40;2.38;;;22.70;80.50;;;;;;5014001;28;20054;-78
2021/08/11 10:28:12;;;;;;;3.53;2.15;;;22.70;80.70;;;;;;5013709;28;20109;-79
2021/08/11 10:30:38;;;;;;;5.47;2.67;;;22.90;82.50;;;;;;5013490;28;20029;-79
2021/08/11 10:33:05;;;;;;;5.22;2.45;;;23.00;80.70;;;;;;5014444;28;20025;-78
2021/08/11 10:35:32;;;;;;;6.43;2.75;;;23.00;80.40;;;;;;5011878;28;20025;-79
2021/08/11 10:37:59;;;;;;;7.93;2.72;;;23.00;79.60;;;;;;5014043;28;20042;-79
2021/08/11 10:40:25;;;;;;;4.55;2.35;;;23.10;79.20;;;;;;5013620;28;20112;-80
2021/08/11 10:42:55;;;;;;;6.57;2.20;;;23.10;79.50;;;;;;5009234;28;20018;-80
2021/08/11 10:45:23;;;;;;;6.03;2.50;;;23.10;79.30;;;;;;5013199;28;20483;-88
2021/08/11 10:47:49;;;;;;;4.30;2.60;;;23.20;79.00;;;;;;5013420;28;20049;-84
2021/08/11 10:50:15;;;;;;;6.85;2.30;;;23.30;78.70;;;;;;5014781;28;20467;-82
2021/08/11 10:52:41;;;;;;;5.95;2.20;;;23.20;78.60;;;;;;5012738;28;20069;-80
2021/08/11 10:55:07;;;;;;;5.18;2.13;;;23.20;79.00;;;;;;5013028;28;20517;-79
2021/08/11 10:57:40;;;;;;;4.82;2.60;;;23.20;77.40;;;;;;5012333;28;20021;-82
2021/08/11 11:00:21;;;;;;;4.57;2.33;;;23.30;77.30;;;;;;5003308;28;20038;-82
2021/08/11 11:02:49;;;;;;;6.07;2.05;;;23.30;77.20;;;;;;5013769;28;20479;-78
2021/08/11 11:05:20;;;;;;;6.07;2.75;;;23.30;76.70;;;;;;5012923;28;20033;-79
2021/08/11 11:08:15;;;;;;;;;;;23.40;77.40;;;;;;5014314;28;20030;-78
2021/08/11 11:10:44;;;;;;;4.82;2.30;;;23.50;76.60;;;;;;5007886;28;19984;-80
2021/08/11 11:13:26;;;;;;;4.47;2.40;;;23.50;76.20;;;;;;5012149;28;20161;-79
2021/08/11 11:15:53;;;;;;;5.30;2.80;;;23.60;76.60;;;;;;5012910;28;20026;-81
2021/08/11 11:18:23;;;;;;;3.95;2.50;;;23.60;76.70;;;;;;5012934;28;20076;-81
2021/08/11 11:20:49;;;;;;;3.53;2.75;;;23.70;77.60;;;;;;5012736;28;20026;-81
2021/08/11 11:23:40;;;;;;;5.97;2.30;;;23.80;76.70;;;;;;5013440;28;20029;-81
2021/08/11 11:26:16;;;;;;;6.85;2.60;;;23.90;75.90;;;;;;5000613;28;20010;-81
2021/08/11 11:29:02;;;;;;;3.65;2.30;;;24.00;74.20;;;;;;5012950;28;20120;-79
2021/08/11 11:31:38;;;;;;;4.93;2.72;;;24.10;73.40;;;;;;5013359;28;20469;-83
2021/08/11 11:34:20;;;;;;;3.58;2.47;;;24.10;73.80;;;;;;5012906;28;20081;-83
2021/08/11 11:36:55;;;;;;;6.45;2.50;;;24.10;74.50;;;;;;5013104;28;20041;-83
2021/08/11 11:39:28;;;;;;;7.07;2.50;;;24.20;74.30;;;;;;5013756;28;20026;-82
2021/08/11 11:42:25;;;;;;;5.90;2.63;;;24.30;74.10;;;;;;5013231;28;20028;-84
2021/08/11 11:44:53;;;;;;;4.30;2.33;;;24.40;72.90;;;;;;5013284;28;20025;-83
2021/08/11 11:47:38;;;;;;;4.35;2.65;;;24.50;73.60;;;;;;5012375;28;20467;-79
2021/08/11 11:50:22;;;;;;;6.78;2.55;;;24.60;73.10;;;;;;5012628;28;20061;-80
2021/08/11 11:53:03;;;;;;;4.00;2.33;;;24.60;74.30;;;;;;5012839;28;20029;-81
2021/08/11 11:55:34;;;;;;;4.43;1.80;;;24.70;70.80;;;;;;5011898;28;20018;-80
2021/08/11 11:58:05;;;;;;;2.88;2.10;;;24.80;70.20;;;;;;5012075;28;20410;-82
2021/08/11 12:00:30;;;;;;;3.60;2.10;;;24.90;70.00;;;;;;5011981;28;20042;-82
2021/08/11 12:02:56;;;;;;;3.70;1.90;;;25.00;68.10;;;;;;5012823;28;20052;-82
2021/08/11 12:05:23;;;;;;;3.20;2.25;;;24.90;68.20;;;;;;5012936;28;20427;-83
2021/08/11 12:07:50;;;;;;;4.18;2.30;;;25.00;68.50;;;;;;5013597;28;20096;-82
2021/08/11 12:10:27;;;;;;;2.50;2.20;;;25.10;67.50;;;;;;5012851;28;20053;-84
2021/08/11 12:13:01;;;;;;;4.82;2.20;;;25.20;67.00;;;;;;5012513;28;20033;-87
2021/08/11 12:15:32;;;;;;;5.18;2.25;;;25.30;67.30;;;;;;5012294;28;20026;-88
2021/08/11 12:17:59;;;;;;;3.65;2.10;;;25.40;65.80;;;;;;5011953;28;20049;-87
2021/08/11 12:20:34;;;;;;;2.50;1.73;;;25.60;65.10;;;;;;5011767;28;20029;-87
2021/08/11 12:23:02;;;;;;;5.60;2.22;;;25.80;63.90;;;;;;5012830;28;20428;-87
2021/08/11 12:25:33;;;;;;;3.00;1.83;;;26.00;63.80;;;;;;5017401;28;20076;-86
2021/08/11 12:28:26;;;;;;;5.00;2.22;;;26.10;62.90;;;;;;5011985;28;20022;-86
2021/08/11 12:31:09;;;;;;;4.57;2.00;;;26.30;61.90;;;;;;4995459;28;20039;-85
2021/08/11 12:33:37;;;;;;;3.60;2.00;;;26.50;62.50;;;;;;4998075;28;20109;-84
2021/08/11 12:36:09;;;;;;;2.53;1.90;;;26.60;61.60;;;;;;5016745;28;20022;-84
2021/08/11 12:39:12;;;;;;;3.38;2.58;;;26.60;61.10;;;;;;5015454;28;20080;-85
2021/08/11 12:42:02;;;;;;;4.97;2.30;;;26.60;61.10;;;;;;5015676;28;20112;-85
2021/08/11 12:44:30;;;;;;;2.10;1.77;;;26.80;59.90;;;;;;5015422;28;20033;-86
2021/08/11 12:47:03;;;;;;;2.90;2.00;;;26.90;61.00;;;;;;5016444;28;20033;-86
2021/08/11 12:49:29;;;;;;;2.05;1.80;;;27.10;61.00;;;;;;5015560;28;20030;-85
2021/08/11 12:52:04;;;;;;;3.88;2.17;;;27.30;59.60;;;;;;5015979;28;20029;-85
2021/08/11 12:54:52;;;;;;;3.22;1.98;;;27.50;59.40;;;;;;5010253;28;20029;-86
2021/08/11 12:57:18;;;;;;;4.28;2.00;;;27.70;59.50;;;;;;5029003;28;20088;-84